Maxwell, New Mexico
Current Conditions -  °F | °C
As of 4:14 AM on Monday 22 Dec 2014 (Local Time) from KRTN Reporting Station
Light Snow Light Snow  
Wind Chill: 23°   Ceiling: 2200
Heat Index: 34°   Visibility: 1.7mi
Dew Point: 32°   Wind: 17mph
Humidity: 92%   Direction: 40°NE
Pressure: 29.73"   Gusts: NA
Location:  36.54°N, 104.54°W
Report Text: KRTN 221114Z AUTO 04015KT 1 3/4SM -SN BR SCT015 OVC022 01/00 A2973 RMK AO2 WSHFT 1058 RAE02SNB02 P0002 T00110000
Loading
Personal Weather Stations






























Interactive Weather Map New forecast layout! Learn more

10-Day Weather Forecast

Advertisements
Track Severe Weather on mobile